Time;durP1;ratioP1;P1;durP2;ratioP2;P2;SDS_P1;SDS_P2;PMS_P1;PMS_P2;Temp;Humidity;BMP_temperature;BMP_pressure;BME280_temperature;BME280_humidity;BME280_pressure;Samples;Min_cycle;Max_cycle;Signal;HPM_P1;HPM_P2
2023/10/11 00:00:33;;;;;;;7.15;4.13;;;19.70;69.50;;;;;;4972874;28;20050;-26
2023/10/11 00:03:05;;;;;;;5.32;4.07;;;18.80;86.60;;;;;;4972565;28;20698;-27
2023/10/11 00:05:37;;;;;;;7.28;4.00;;;19.70;69.50;;;;;;4973422;28;20463;-26
2023/10/11 00:08:04;;;;;;;5.70;4.00;;;19.80;86.60;;;;;;4976966;28;20078;-27
2023/10/11 00:10:31;;;;;;;5.50;3.80;;;19.10;87.20;;;;;;4977201;28;20055;-27
2023/10/11 00:12:59;;;;;;;5.68;4.13;;;;;;;;;;4994129;28;20100;-27
2023/10/11 00:15:28;;;;;;;6.13;3.83;;;20.20;87.70;;;;;;4976847;28;20494;-27
2023/10/11 00:17:55;;;;;;;5.78;3.97;;;19.50;87.30;;;;;;4977046;28;20050;-27
2023/10/11 00:20:31;;;;;;;6.28;3.67;;;19.70;69.40;;;;;;4976544;28;20122;-26
2023/10/11 00:22:59;;;;;;;5.97;3.90;;;19.70;87.20;;;;;;4976766;28;20057;-27
2023/10/11 00:25:27;;;;;;;5.53;3.55;;;19.70;71.90;;;;;;4976810;28;20488;-26
2023/10/11 00:27:54;;;;;;;6.20;4.03;;;20.00;86.90;;;;;;4976065;28;20047;-27
2023/10/11 00:30:21;;;;;;;5.38;3.67;;;;;;;;;;4976919;28;20051;-26
2023/10/11 00:32:48;;;;;;;4.78;3.35;;;19.40;83.30;;;;;;4976690;28;20467;-27
2023/10/11 00:35:19;;;;;;;5.20;3.80;;;;;;;;;;4976464;28;20215;-26
2023/10/11 00:37:51;;;;;;;5.30;3.90;;;19.10;86.50;;;;;;4972241;28;20046;-27
2023/10/11 00:40:25;;;;;;;4.95;4.03;;;20.20;86.90;;;;;;4976379;28;20055;-27
2023/10/11 00:42:52;;;;;;;5.50;3.80;;;20.30;86.90;;;;;;4976199;28;20050;-27
2023/10/11 00:45:22;;;;;;;8.57;3.90;;;20.40;86.90;;;;;;4976303;28;20468;-27
2023/10/11 00:47:51;;;;;;;5.13;3.38;;;20.60;87.10;;;;;;4976400;28;20046;-27
2023/10/11 00:50:18;;;;;;;6.57;4.18;;;19.50;86.90;;;;;;4976194;28;20054;-27
2023/10/11 00:52:47;;;;;;;5.45;3.60;;;;;;;;;;4975559;28;20100;-27
2023/10/11 00:55:18;;;;;;;5.93;3.97;;;20.50;87.90;;;;;;4976094;28;20050;-27
2023/10/11 00:57:45;;;;;;;5.72;3.63;;;19.20;87.20;;;;;;4976085;28;20061;-27
2023/10/11 01:00:16;;;;;;;6.25;4.00;;;20.30;87.00;;;;;;4976138;28;20051;-27
2023/10/11 01:02:44;;;;;;;7.70;4.20;;;;;;;;;;4975999;28;20051;-27
2023/10/11 01:05:11;;;;;;;5.43;3.90;;;;;;;;;;4975667;28;20058;-27
2023/10/11 01:07:39;;;;;;;5.88;3.80;;;;;;;;;;4975863;28;20051;-26
2023/10/11 01:10:07;;;;;;;6.22;4.25;;;19.40;87.40;;;;;;4975804;28;20055;-24
2023/10/11 01:12:35;;;;;;;5.47;3.78;;;19.50;87.00;;;;;;4984446;28;20070;-24
2023/10/11 01:15:02;;;;;;;5.68;3.65;;;19.60;85.40;;;;;;4995354;28;20629;-24
2023/10/11 01:17:31;;;;;;;7.85;3.95;;;20.80;81.80;;;;;;4994588;28;20042;-25
2023/10/11 01:19:59;;;;;;;7.07;3.92;;;;;;;;;;4995173;28;20127;-27
2023/10/11 01:22:28;;;;;;;6.93;3.65;;;19.60;69.60;;;;;;4994978;28;20093;-27
2023/10/11 01:24:55;;;;;;;5.70;3.83;;;19.60;72.00;;;;;;4985695;28;20051;-25
2023/10/11 01:27:25;;;;;;;6.00;3.80;;;19.90;87.70;;;;;;4975130;28;20082;-24
2023/10/11 01:29:52;;;;;;;6.70;4.10;;;19.40;86.90;;;;;;4975579;28;20655;-24
2023/10/11 01:32:19;;;;;;;7.35;4.18;;;19.50;84.50;;;;;;4975071;28;20057;-24
2023/10/11 01:34:46;;;;;;;5.47;3.80;;;19.50;87.10;;;;;;4975463;28;20055;-24
2023/10/11 01:37:13;;;;;;;6.70;3.90;;;;;;;;;;4974729;28;20570;-25
2023/10/11 01:39:41;;;;;;;7.07;4.05;;;20.40;88.00;;;;;;4975259;28;20054;-24
2023/10/11 01:42:08;;;;;;;5.45;3.70;;;;;;;;;;4975179;28;20054;-24
2023/10/11 01:44:36;;;;;;;6.35;4.15;;;;;;;;;;4975192;28;20047;-26
2023/10/11 01:47:04;;;;;;;6.60;4.07;;;;;;;;;;4974929;28;20078;-27
2023/10/11 01:49:37;;;;;;;5.78;3.80;;;19.30;87.60;;;;;;4975342;28;20046;-24
2023/10/11 01:52:06;;;;;;;8.05;4.47;;;19.70;84.70;;;;;;4975104;28;20050;-25
2023/10/11 01:54:34;;;;;;;6.07;3.92;;;;;;;;;;4974994;28;20058;-27
2023/10/11 01:57:02;;;;;;;7.03;4.03;;;19.20;86.90;;;;;;4974541;28;20074;-24
2023/10/11 01:59:30;;;;;;;6.10;4.00;;;;;;;;;;4975085;28;20054;-24
2023/10/11 02:02:01;;;;;;;10.27;3.83;;;19.40;87.30;;;;;;4974743;28;20061;-24
2023/10/11 02:04:29;;;;;;;8.32;4.30;;;19.20;72.00;;;;;;4975114;28;20059;-25
2023/10/11 02:06:57;;;;;;;6.22;4.05;;;;;;;;;;4974666;28;20055;-26
2023/10/11 02:09:24;;;;;;;7.28;4.35;;;;;;;;;;4974683;28;20046;-27
2023/10/11 02:11:53;;;;;;;7.30;4.13;;;20.70;87.60;;;;;;4974029;28;20051;-24
2023/10/11 02:14:21;;;;;;;8.40;4.13;;;19.30;87.30;;;;;;4974723;28;20058;-24
2023/10/11 02:16:48;;;;;;;8.70;4.15;;;19.00;72.40;;;;;;4974582;28;20114;-25
2023/10/11 02:19:15;;;;;;;6.13;3.92;;;19.50;87.00;;;;;;4974688;28;20558;-24
2023/10/11 02:21:44;;;;;;;8.63;4.90;;;;;;;;;;4974238;28;20086;-27
2023/10/11 02:24:14;;;;;;;7.97;4.35;;;20.20;82.70;;;;;;4974483;28;20043;-25
2023/10/11 02:26:41;;;;;;;7.05;4.32;;;20.00;87.30;;;;;;4974270;28;20054;-25
2023/10/11 02:29:15;;;;;;;6.47;4.32;;;;;;;;;;4973672;28;20078;-27
2023/10/11 02:31:43;;;;;;;5.47;4.10;;;19.60;70.00;;;;;;4974398;28;20500;-27
2023/10/11 02:34:13;;;;;;;6.07;4.18;;;;;;;;;;4974288;28;20097;-28
2023/10/11 02:36:42;;;;;;;7.05;4.57;;;;;;;;;;4973471;28;20045;-27
2023/10/11 02:39:17;;;;;;;5.90;4.50;;;19.30;87.00;;;;;;4974207;28;20058;-24
2023/10/11 02:41:47;;;;;;;6.45;4.40;;;19.60;70.00;;;;;;4974241;28;20059;-24
2023/10/11 02:44:14;;;;;;;7.55;4.35;;;19.20;76.20;;;;;;4973905;28;20043;-25
2023/10/11 02:46:43;;;;;;;6.18;4.18;;;19.10;76.20;;;;;;4973755;28;20062;-24
2023/10/11 02:49:18;;;;;;;6.22;4.28;;;20.10;87.40;;;;;;4974084;28;20094;-24
2023/10/11 02:51:52;;;;;;;8.32;4.38;;;19.20;81.20;;;;;;4973656;28;20051;-25
2023/10/11 02:54:19;;;;;;;5.88;3.88;;;;;;;;;;4974021;28;20065;-27
2023/10/11 02:56:51;;;;;;;8.57;4.15;;;;;;;;;;4973799;28;20055;-24
2023/10/11 02:59:20;;;;;;;5.68;4.10;;;18.50;87.00;;;;;;4973941;28;20571;-24
2023/10/11 03:01:59;;;;;;;8.18;4.40;;;19.50;87.00;;;;;;4973350;28;20050;-24
2023/10/11 03:04:28;;;;;;;6.88;4.63;;;19.30;87.00;;;;;;4973785;28;20057;-24
2023/10/11 03:06:55;;;;;;;6.72;4.38;;;20.30;87.80;;;;;;4973862;28;20571;-24
2023/10/11 03:09:26;;;;;;;6.75;4.68;;;20.20;79.70;;;;;;4973118;28;20043;-24
2023/10/11 03:11:56;;;;;;;7.63;4.30;;;;;;;;;;4971945;28;20090;-27
2023/10/11 03:14:24;;;;;;;6.63;4.72;;;18.60;86.00;;;;;;4973294;28;20081;-24
2023/10/11 03:16:57;;;;;;;5.53;4.57;;;19.50;70.00;;;;;;4971749;28;20058;-24
2023/10/11 03:19:24;;;;;;;7.53;4.93;;;19.10;80.50;;;;;;4973006;28;20082;-25
2023/10/11 03:21:54;;;;;;;7.13;4.32;;;19.10;87.70;;;;;;4973247;28;20053;-24
2023/10/11 03:24:21;;;;;;;6.80;4.55;;;19.50;87.20;;;;;;4972923;28;20046;-24
2023/10/11 03:26:51;;;;;;;6.82;4.25;;;20.30;73.60;;;;;;4973128;28;20050;-26
2023/10/11 03:29:21;;;;;;;7.82;4.38;;;19.40;71.40;;;;;;4973305;28;20042;-25
2023/10/11 03:31:48;;;;;;;6.82;4.50;;;;;;;;;;4973250;28;20050;-28
2023/10/11 03:34:18;;;;;;;6.93;4.25;;;19.50;70.00;;;;;;4972964;28;20567;-25
2023/10/11 03:36:50;;;;;;;6.45;4.40;;;20.10;87.60;;;;;;4971438;28;20051;-24
2023/10/11 03:39:26;;;;;;;7.18;4.47;;;20.10;87.50;;;;;;4972337;28;20055;-25
2023/10/11 03:42:05;;;;;;;6.63;3.97;;;19.80;88.10;;;;;;4967770;28;20086;-24
2023/10/11 03:44:35;;;;;;;7.07;4.13;;;19.30;87.40;;;;;;4970405;28;20054;-24
2023/10/11 03:47:06;;;;;;;6.70;4.30;;;20.10;88.20;;;;;;4972454;28;20492;-24
2023/10/11 03:49:47;;;;;;;8.95;4.57;;;19.50;70.00;;;;;;4970191;28;20093;-26
2023/10/11 03:52:19;;;;;;;6.57;4.05;;;18.50;86.90;;;;;;4970194;28;20484;-27
2023/10/11 03:54:47;;;;;;;7.30;4.15;;;19.90;87.60;;;;;;4972772;28;20047;-27
2023/10/11 03:57:16;;;;;;;5.63;4.32;;;19.50;88.20;;;;;;4972357;28;20054;-27
2023/10/11 03:59:48;;;;;;;5.93;4.13;;;19.90;83.40;;;;;;4970212;28;20551;-27
2023/10/11 04:02:17;;;;;;;6.50;4.45;;;20.60;88.00;;;;;;4972446;28;20133;-27
2023/10/11 04:04:48;;;;;;;7.38;4.70;;;19.30;87.20;;;;;;4970215;28;20507;-27
2023/10/11 04:07:16;;;;;;;6.95;4.35;;;18.70;75.30;;;;;;4972721;28;20102;-27
2023/10/11 04:09:46;;;;;;;6.57;4.60;;;;;;;;;;4972903;28;20485;-24
2023/10/11 04:12:13;;;;;;;7.72;4.70;;;20.40;88.20;;;;;;4985417;28;20105;-25
2023/10/11 04:14:45;;;;;;;7.95;4.68;;;20.10;74.30;;;;;;4992287;28;20105;-25
2023/10/11 04:17:24;;;;;;;5.75;4.63;;;18.90;87.90;;;;;;4992379;28;20152;-25
2023/10/11 04:19:53;;;;;;;8.32;4.82;;;19.50;87.50;;;;;;4987693;28;20125;-25
2023/10/11 04:22:24;;;;;;;6.93;4.28;;;19.70;82.10;;;;;;4972722;28;20105;-25
2023/10/11 04:24:53;;;;;;;8.38;4.80;;;19.90;87.90;;;;;;4972859;28;20058;-25
2023/10/11 04:27:46;;;;;;;7.68;4.80;;;20.00;87.70;;;;;;4972527;28;20094;-25
2023/10/11 04:30:24;;;;;;;5.45;4.45;;;19.50;70.00;;;;;;4972683;28;20062;-25
2023/10/11 04:32:56;;;;;;;8.15;4.60;;;20.50;88.20;;;;;;4972785;28;20070;-25
2023/10/11 04:35:25;;;;;;;6.07;4.13;;;19.10;87.60;;;;;;4971179;28;20062;-25
2023/10/11 04:37:55;;;;;;;9.20;4.55;;;19.50;70.00;;;;;;4971698;28;20051;-24
2023/10/11 04:40:39;;;;;;;6.00;4.57;;;19.80;71.80;;;;;;4973001;28;20050;-25
2023/10/11 04:43:08;;;;;;;5.93;4.10;;;18.50;87.10;;;;;;4972360;28;20546;-25
2023/10/11 04:45:44;;;;;;;6.43;4.55;;;19.60;80.30;;;;;;4980917;28;20141;-25
2023/10/11 04:48:14;;;;;;;6.53;4.55;;;19.20;72.70;;;;;;4991258;28;20047;-26
2023/10/11 04:50:45;;;;;;;6.18;4.30;;;19.90;88.20;;;;;;4974956;28;20643;-26
2023/10/11 04:53:17;;;;;;;6.25;4.47;;;19.30;87.60;;;;;;4973579;28;20073;-26
2023/10/11 04:55:46;;;;;;;6.90;4.40;;;19.90;88.30;;;;;;4975298;28;20055;-26
2023/10/11 04:58:21;;;;;;;6.50;4.47;;;19.80;79.50;;;;;;4975351;28;20480;-26
2023/10/11 05:00:49;;;;;;;;;;;19.40;70.70;;;;;;4975843;28;20050;-27
2023/10/11 05:03:17;;;;;;;6.25;4.22;;;19.40;88.40;;;;;;4975332;28;19929;-24
2023/10/11 05:05:58;;;;;;;8.15;4.60;;;19.70;88.50;;;;;;4975379;28;20093;-25
2023/10/11 05:08:50;;;;;;;7.88;4.40;;;19.40;70.30;;;;;;4974162;28;20053;-24
2023/10/11 05:11:25;;;;;;;6.95;4.50;;;19.50;88.20;;;;;;4975606;28;20160;-25
2023/10/11 05:14:07;;;;;;;7.30;4.43;;;;;;;;;;4974899;28;20122;-25
2023/10/11 05:16:38;;;;;;;;;;;19.40;70.50;;;;;;4975616;28;20055;-25
2023/10/11 05:19:06;;;;;;;8.88;4.63;;;19.60;88.20;;;;;;4975140;28;20600;-25
2023/10/11 05:21:38;;;;;;;6.82;4.47;;;18.80;81.90;;;;;;4974233;28;20043;-25
2023/10/11 05:24:27;;;;;;;7.80;4.70;;;19.20;87.90;;;;;;4974539;28;20047;-25
2023/10/11 05:27:04;;;;;;;6.35;4.57;;;;;;;;;;4974780;28;20050;-25
2023/10/11 05:29:36;;;;;;;8.07;4.50;;;20.30;88.40;;;;;;4974924;28;20047;-25
2023/10/11 05:34:50;;;;;;;5.90;4.20;;;;;;;;;;4974346;28;20404;-26
2023/10/11 05:51:03;;;;;;;5.10;4.28;;;;;;;;;;4974435;28;20058;-23
2023/10/11 05:53:32;;;;;;;7.10;4.47;;;19.50;88.50;;;;;;4974514;28;20051;-23
2023/10/11 05:55:59;;;;;;;6.78;4.60;;;;;;;;;;4973807;28;20515;-25
2023/10/11 05:58:26;;;;;;;6.25;4.35;;;19.10;87.90;;;;;;4974243;28;20078;-25
2023/10/11 06:00:54;;;;;;;7.57;4.97;;;19.00;77.40;;;;;;4974256;28;20098;-25
2023/10/11 06:03:24;;;;;;;7.13;4.50;;;19.30;74.90;;;;;;4973185;28;20424;-25
2023/10/11 06:05:52;;;;;;;7.38;4.53;;;;;;;;;;4973846;28;20503;-25
2023/10/11 06:08:19;;;;;;;8.00;4.63;;;;;;;;;;4974216;28;20055;-24
2023/10/11 06:10:48;;;;;;;5.13;4.30;;;18.40;87.40;;;;;;4974284;28;20090;-25
2023/10/11 06:13:15;;;;;;;7.35;4.93;;;;;;;;;;4954951;28;20138;-25
2023/10/11 06:15:50;;;;;;;7.30;4.38;;;19.10;76.30;;;;;;4954797;28;20043;-25
2023/10/11 06:21:05;;;;;;;6.03;4.50;;;19.30;88.30;;;;;;4954256;28;20051;-25
2023/10/11 06:23:33;;;;;;;7.60;4.85;;;19.20;81.70;;;;;;4954516;28;20130;-25
2023/10/11 06:26:28;;;;;;;7.43;4.40;;;18.50;84.80;;;;;;4954460;28;20059;-25
2023/10/11 06:28:48;;;;;;;6.13;4.72;;;;;;;;;;4966355;28;20635;-25
2023/10/11 06:31:16;;;;;;;10.82;5.35;;;;;;;;;;4973755;28;20543;-26
2023/10/11 06:33:45;;;;;;;7.63;4.40;;;19.60;88.10;;;;;;4973360;28;20050;-26
2023/10/11 06:36:16;;;;;;;5.95;4.80;;;;;;;;;;4973223;28;20054;-25
2023/10/11 06:38:43;;;;;;;9.98;5.13;;;19.80;81.70;;;;;;4973118;28;20066;-26
2023/10/11 06:43:56;;;;;;;8.18;4.68;;;;;;;;;;4971780;28;20397;-25
2023/10/11 06:46:23;;;;;;;6.65;4.55;;;19.00;88.00;;;;;;4972624;28;20050;-25
2023/10/11 06:48:50;;;;;;;6.30;4.53;;;19.10;77.50;;;;;;4973389;28;20129;-25
2023/10/11 06:51:17;;;;;;;6.65;4.65;;;19.40;73.40;;;;;;4958142;28;20047;-25
2023/10/11 06:53:46;;;;;;;8.20;4.90;;;18.40;87.70;;;;;;4953595;28;20133;-25
2023/10/11 06:56:16;;;;;;;7.28;5.00;;;19.60;81.00;;;;;;4965925;28;20050;-25
2023/10/11 06:58:45;;;;;;;6.68;4.60;;;19.00;88.30;;;;;;4973142;28;20133;-25
2023/10/11 07:01:14;;;;;;;9.85;4.30;;;20.00;88.40;;;;;;4972897;28;20046;-25
2023/10/11 07:03:40;;;;;;;7.47;4.72;;;19.40;70.60;;;;;;4973011;28;20149;-25
2023/10/11 07:06:11;;;;;;;7.68;4.55;;;18.80;87.60;;;;;;4973242;28;20051;-25
2023/10/11 07:08:48;;;;;;;7.15;4.93;;;19.10;88.20;;;;;;4972968;28;20053;-25
2023/10/11 07:11:36;;;;;;;7.50;5.10;;;19.50;70.60;;;;;;4978264;28;20043;-25
2023/10/11 07:14:05;;;;;;;6.18;4.82;;;19.10;76.70;;;;;;4992262;28;20050;-25
2023/10/11 07:16:33;;;;;;;7.85;4.40;;;19.50;87.70;;;;;;4989560;28;20050;-25
2023/10/11 07:19:00;;;;;;;8.52;4.90;;;;;;;;;;4975938;28;20078;-25
2023/10/11 07:21:48;;;;;;;5.65;4.25;;;19.60;70.40;;;;;;4973214;28;20416;-25
2023/10/11 07:24:31;;;;;;;11.52;4.80;;;19.10;87.70;;;;;;4972403;28;20066;-25
2023/10/11 07:26:59;;;;;;;5.50;3.92;;;20.70;88.40;;;;;;4971998;28;20086;-25
2023/10/11 07:29:33;;;;;;;6.30;4.38;;;;;;;;;;4972922;28;20057;-25
2023/10/11 07:31:59;;;;;;;6.88;4.53;;;19.70;87.90;;;;;;4972758;28;20462;-25
2023/10/11 07:34:26;;;;;;;6.72;4.45;;;19.60;82.80;;;;;;4972004;28;20142;-25
2023/10/11 07:36:55;;;;;;;6.50;4.43;;;;;;;;;;4971375;28;20516;-24
2023/10/11 07:39:25;;;;;;;7.25;4.85;;;19.80;87.60;;;;;;4970330;28;20043;-25
2023/10/11 07:42:00;;;;;;;6.90;4.50;;;20.10;87.80;;;;;;4966489;28;20580;-25
2023/10/11 07:44:30;;;;;;;8.48;4.57;;;20.10;87.40;;;;;;4972168;28;20062;-26
2023/10/11 07:46:57;;;;;;;7.22;4.63;;;20.80;88.00;;;;;;4971581;28;20047;-25
2023/10/11 07:49:25;;;;;;;8.70;4.90;;;20.70;70.50;;;;;;4971715;28;20094;-25
2023/10/11 07:51:53;;;;;;;6.43;4.78;;;19.80;69.90;;;;;;4969369;28;20085;-25
2023/10/11 07:54:21;;;;;;;6.97;4.90;;;;;;;;;;4953646;28;20051;-25
2023/10/11 07:56:49;;;;;;;8.18;4.53;;;19.70;69.90;;;;;;4969503;28;20456;-26
2023/10/11 07:59:16;;;;;;;8.10;4.82;;;;;;;;;;4972393;28;20062;-25
2023/10/11 08:01:44;;;;;;;8.23;4.82;;;20.90;82.10;;;;;;4972248;28;20113;-26
2023/10/11 08:04:12;;;;;;;8.20;5.22;;;19.10;70.30;;;;;;4971666;28;20162;-25
2023/10/11 08:06:40;;;;;;;8.43;5.18;;;19.80;87.00;;;;;;4963859;28;20493;-26
2023/10/11 08:09:09;;;;;;;6.93;4.88;;;19.50;84.00;;;;;;4962519;28;20046;-25
2023/10/11 08:11:45;;;;;;;7.90;4.80;;;;;;;;;;4968893;28;20094;-25
2023/10/11 08:14:15;;;;;;;8.20;5.10;;;;;;;;;;4972134;28;20110;-25
2023/10/11 08:16:47;;;;;;;8.23;4.85;;;19.00;86.90;;;;;;4971661;28;20133;-25
2023/10/11 08:19:14;;;;;;;7.80;4.93;;;19.70;87.00;;;;;;4971975;28;20069;-25
2023/10/11 08:21:47;;;;;;;10.90;5.90;;;;;;;;;;4964073;28;20050;-25
2023/10/11 08:24:16;;;;;;;12.40;5.43;;;19.60;86.80;;;;;;4955441;28;20068;-25
2023/10/11 08:26:44;;;;;;;10.00;5.15;;;;;;;;;;4952770;28;20051;-24
2023/10/11 08:29:17;;;;;;;10.43;5.45;;;20.00;87.00;;;;;;4956306;28;20054;-24
2023/10/11 08:31:48;;;;;;;12.02;5.70;;;19.20;86.60;;;;;;4963488;28;20097;-24
2023/10/11 08:34:18;;;;;;;9.18;5.47;;;;;;;;;;4971965;28;20460;-24
2023/10/11 08:36:45;;;;;;;8.30;5.20;;;;;;;;;;4975038;28;20052;-24
2023/10/11 08:39:13;;;;;;;9.70;5.28;;;19.80;87.30;;;;;;4975446;28;20047;-24
2023/10/11 08:41:43;;;;;;;9.75;5.82;;;19.70;83.40;;;;;;4975722;28;20415;-24
2023/10/11 08:44:20;;;;;;;7.45;5.20;;;21.30;87.80;;;;;;4974558;28;20050;-24
2023/10/11 08:46:49;;;;;;;8.80;4.78;;;19.80;70.20;;;;;;4970980;28;20043;-24
2023/10/11 08:49:17;;;;;;;8.98;5.22;;;19.60;79.10;;;;;;4975215;28;20081;-25
2023/10/11 08:51:44;;;;;;;9.43;5.20;;;19.60;71.10;;;;;;4975034;28;20043;-25
2023/10/11 08:54:12;;;;;;;9.20;5.53;;;21.10;87.80;;;;;;4966117;28;20058;-23
2023/10/11 08:56:39;;;;;;;9.50;5.40;;;19.90;86.80;;;;;;4961395;28;20053;-23
2023/10/11 08:59:06;;;;;;;10.70;5.50;;;21.20;82.30;;;;;;4971976;28;20046;-23
2023/10/11 09:01:36;;;;;;;10.65;5.93;;;19.20;76.20;;;;;;4973352;28;20098;-23
2023/10/11 09:04:06;;;;;;;8.43;5.25;;;21.40;85.10;;;;;;4966282;28;20051;-24
2023/10/11 09:06:34;;;;;;;9.38;5.00;;;20.10;69.90;;;;;;4954164;28;20106;-24
2023/10/11 09:09:03;;;;;;;8.30;5.03;;;20.30;70.00;;;;;;4956353;28;20062;-25
2023/10/11 09:11:31;;;;;;;9.38;5.18;;;;;;;;;;4974558;28;20120;-24
2023/10/11 09:14:11;;;;;;;8.25;5.10;;;20.30;69.90;;;;;;4973591;28;20138;-25
2023/10/11 09:16:38;;;;;;;10.05;4.93;;;19.90;87.10;;;;;;4974222;28;20101;-23
2023/10/11 09:19:06;;;;;;;7.78;5.15;;;20.30;69.80;;;;;;4974020;28;20082;-26
2023/10/11 09:21:35;;;;;;;8.40;5.20;;;20.30;86.80;;;;;;4971837;28;20047;-23
2023/10/11 09:24:03;;;;;;;9.95;5.38;;;20.30;87.20;;;;;;4973673;28;20054;-23
2023/10/11 09:26:34;;;;;;;8.02;5.07;;;20.50;86.80;;;;;;4973031;28;20126;-23
2023/10/11 09:29:03;;;;;;;12.18;5.97;;;;;;;;;;4974271;28;20058;-25
2023/10/11 09:31:31;;;;;;;11.48;5.20;;;20.80;70.90;;;;;;4972907;28;20050;-24
2023/10/11 09:34:02;;;;;;;8.23;5.50;;;20.20;71.70;;;;;;4974553;28;20102;-24
2023/10/11 09:36:31;;;;;;;11.38;5.43;;;20.50;69.50;;;;;;4974054;28;20051;-27
2023/10/11 09:38:58;;;;;;;7.43;4.93;;;;;;;;;;4971761;28;20133;-26
2023/10/11 09:41:25;;;;;;;7.93;4.93;;;20.60;69.40;;;;;;4973776;28;20046;-26
2023/10/11 09:43:55;;;;;;;10.38;5.38;;;20.60;69.50;;;;;;4974018;28;20089;-25
2023/10/11 09:46:22;;;;;;;7.60;5.10;;;;;;;;;;4973226;28;20054;-24
2023/10/11 09:48:49;;;;;;;9.50;4.90;;;;;;;;;;4975377;28;20093;-23
2023/10/11 09:51:16;;;;;;;7.10;5.40;;;;;;;;;;4973615;28;20511;-24
2023/10/11 09:53:50;;;;;;;7.35;5.10;;;20.60;69.20;;;;;;4974017;28;20053;-26
2023/10/11 09:56:35;;;;;;;7.28;5.10;;;20.70;69.20;;;;;;4968298;28;20042;-23
2023/10/11 09:59:09;;;;;;;7.70;5.27;;;20.70;69.20;;;;;;4974119;28;20146;-26
2023/10/11 10:01:39;;;;;;;8.82;5.05;;;20.70;69.10;;;;;;4973741;28;20567;-26
2023/10/11 10:04:08;;;;;;;8.88;5.70;;;21.20;70.30;;;;;;4973349;28;20047;-25
2023/10/11 10:06:35;;;;;;;7.18;5.50;;;;;;;;;;4973949;28;20129;-24
2023/10/11 10:09:23;;;;;;;7.70;5.53;;;20.70;69.10;;;;;;4973847;28;20106;-25
2023/10/11 10:12:22;;;;;;;10.27;5.78;;;20.70;69.10;;;;;;4977373;28;20043;-25
2023/10/11 10:15:02;;;;;;;8.15;5.30;;;20.90;86.00;;;;;;4972444;28;20154;-24
2023/10/11 10:17:29;;;;;;;6.90;4.72;;;20.60;86.00;;;;;;4973493;28;20043;-23
2023/10/11 10:20:00;;;;;;;8.57;5.38;;;;;;;;;;4973807;28;20062;-25
2023/10/11 10:22:31;;;;;;;9.80;4.90;;;21.70;77.20;;;;;;4958065;28;20046;-27
2023/10/11 10:25:18;;;;;;;7.25;5.40;;;20.70;69.20;;;;;;4973950;28;20057;-25
2023/10/11 10:27:46;;;;;;;8.60;5.25;;;;;;;;;;4982047;28;20574;-25
2023/10/11 10:30:16;;;;;;;7.22;4.95;;;21.70;77.00;;;;;;4960968;28;20106;-26
2023/10/11 10:33:18;;;;;;;8.43;5.18;;;20.70;69.20;;;;;;4962886;28;20133;-27
2023/10/11 10:35:45;;;;;;;8.93;5.25;;;;;;;;;;4951282;29;20047;-25
2023/10/11 10:38:12;;;;;;;7.50;5.10;;;20.60;78.50;;;;;;4971876;28;20121;-26
2023/10/11 10:40:42;;;;;;;8.00;5.03;;;20.60;69.30;;;;;;4969566;28;20051;-27
2023/10/11 10:43:23;;;;;;;9.68;5.18;;;20.50;70.90;;;;;;4985081;28;20058;-26
2023/10/11 10:45:50;;;;;;;9.02;5.28;;;;;;;;;;4972552;28;20480;-26
2023/10/11 10:48:18;;;;;;;8.48;5.55;;;;;;;;;;4972820;28;20109;-25
2023/10/11 10:50:52;;;;;;;11.25;5.20;;;20.90;87.20;;;;;;4972520;28;20122;-27
2023/10/11 10:53:18;;;;;;;7.45;4.95;;;;;;;;;;4972617;28;20080;-24
2023/10/11 10:55:47;;;;;;;9.75;5.32;;;20.50;69.40;;;;;;4972783;28;20143;-25
2023/10/11 10:58:17;;;;;;;8.43;5.10;;;20.90;69.60;;;;;;4972682;28;20078;-27
2023/10/11 11:00:44;;;;;;;8.90;4.82;;;;;;;;;;4972503;28;20054;-25
2023/10/11 11:03:17;;;;;;;8.73;5.40;;;19.40;85.60;;;;;;4972331;28;20078;-27
2023/10/11 11:05:55;;;;;;;7.00;4.68;;;20.40;80.00;;;;;;4972834;28;20043;-27
2023/10/11 11:08:24;;;;;;;7.13;4.88;;;20.20;86.70;;;;;;4964893;28;20072;-27
2023/10/11 11:10:57;;;;;;;7.20;4.60;;;20.50;69.60;;;;;;4970087;28;20460;-26
2023/10/11 11:13:25;;;;;;;7.78;5.07;;;;;;;;;;4961434;28;20137;-27
2023/10/11 11:15:55;;;;;;;7.22;4.80;;;;;;;;;;4953344;28;20055;-27
2023/10/11 11:18:31;;;;;;;8.05;4.80;;;19.80;74.70;;;;;;4971517;28;20191;-27
2023/10/11 11:21:02;;;;;;;7.43;4.85;;;20.50;86.30;;;;;;4962244;28;20042;-27
2023/10/11 11:23:31;;;;;;;8.35;4.82;;;20.40;77.50;;;;;;4954078;28;20055;-27
2023/10/11 11:26:04;;;;;;;7.05;4.82;;;21.00;86.00;;;;;;4956872;28;20055;-27
2023/10/11 11:28:38;;;;;;;7.38;5.05;;;19.40;85.80;;;;;;4962168;28;20070;-27
2023/10/11 11:31:10;;;;;;;6.22;4.22;;;21.00;87.00;;;;;;4972390;28;20129;-27
2023/10/11 11:33:36;;;;;;;7.18;4.43;;;20.40;77.20;;;;;;4973243;28;20065;-26
2023/10/11 11:36:10;;;;;;;7.05;4.85;;;21.30;76.70;;;;;;4966676;28;20134;-26
2023/10/11 11:38:37;;;;;;;11.18;5.13;;;;;;;;;;4972410;28;20050;-26
2023/10/11 11:41:15;;;;;;;8.55;5.00;;;19.70;86.40;;;;;;4971552;28;20043;-27
2023/10/11 11:43:41;;;;;;;5.90;4.22;;;20.30;75.70;;;;;;4971442;28;20121;-27
2023/10/11 11:46:08;;;;;;;8.15;5.13;;;20.30;86.30;;;;;;4971214;28;20257;-27
2023/10/11 11:48:41;;;;;;;6.50;4.47;;;;;;;;;;4971291;28;20492;-26
2023/10/11 11:51:13;;;;;;;7.85;4.85;;;20.40;70.10;;;;;;4971077;28;20456;-26
2023/10/11 11:53:44;;;;;;;6.18;4.30;;;20.20;86.70;;;;;;4971257;28;20051;-27
2023/10/11 11:56:11;;;;;;;6.35;3.92;;;21.00;87.20;;;;;;4972744;28;20054;-27
2023/10/11 11:58:45;;;;;;;6.85;4.40;;;20.30;86.70;;;;;;4972938;28;20488;-27
2023/10/11 12:01:15;;;;;;;6.82;4.50;;;19.90;71.70;;;;;;4972651;28;20047;-26
2023/10/11 12:03:42;;;;;;;8.23;4.80;;;20.30;84.90;;;;;;4971943;28;20066;-27
2023/10/11 12:06:22;;;;;;;5.95;3.80;;;20.10;75.60;;;;;;4973274;28;20051;-26
2023/10/11 12:08:49;;;;;;;10.13;4.28;;;20.30;87.60;;;;;;4973250;28;20500;-27
2023/10/11 12:11:17;;;;;;;8.52;4.10;;;20.20;87.40;;;;;;4969281;28;20480;-27
2023/10/11 12:13:44;;;;;;;5.63;3.67;;;20.20;86.60;;;;;;4992032;28;20057;-27
2023/10/11 12:16:11;;;;;;;7.28;4.35;;;20.00;87.40;;;;;;4992458;28;20074;-27
2023/10/11 12:18:38;;;;;;;6.22;3.70;;;;;;;;;;4992468;28;20153;-27
2023/10/11 12:21:11;;;;;;;8.00;3.80;;;19.40;86.10;;;;;;4992365;28;20054;-27
2023/10/11 12:23:46;;;;;;;5.80;3.88;;;;;;;;;;4976767;28;20061;-26
2023/10/11 12:26:12;;;;;;;;;;;20.10;70.20;;;;;;4973467;28;20066;-27
2023/10/11 12:28:41;;;;;;;5.80;3.83;;;20.20;70.40;;;;;;4972650;28;19922;-27
2023/10/11 12:31:08;;;;;;;6.28;3.67;;;;;;;;;;4971952;28;20054;-26
2023/10/11 12:33:35;;;;;;;5.47;3.42;;;20.10;87.40;;;;;;4972922;28;20389;-27
2023/10/11 12:36:05;;;;;;;5.15;3.53;;;;;;;;;;4972385;28;20051;-25
2023/10/11 12:38:36;;;;;;;5.95;3.72;;;;;;;;;;4972290;28;20051;-25
2023/10/11 12:41:03;;;;;;;5.82;3.50;;;20.20;70.20;;;;;;4972472;28;20512;-26
2023/10/11 12:43:30;;;;;;;6.13;3.78;;;20.30;86.80;;;;;;4972536;28;20046;-27
2023/10/11 12:45:58;;;;;;;5.25;3.58;;;20.20;83.10;;;;;;4972558;28;20057;-27
2023/10/11 12:48:25;;;;;;;5.22;3.45;;;20.10;87.50;;;;;;4972592;28;20500;-27
2023/10/11 12:50:52;;;;;;;5.35;3.38;;;20.30;87.50;;;;;;4972171;28;20542;-27
2023/10/11 12:53:19;;;;;;;5.03;3.47;;;;;;;;;;4971794;28;20477;-25
2023/10/11 12:55:49;;;;;;;5.22;3.35;;;19.30;86.20;;;;;;4972368;28;20086;-27
2023/10/11 12:58:16;;;;;;;4.90;3.63;;;20.20;70.20;;;;;;4972228;28;20471;-27
2023/10/11 13:00:49;;;;;;;6.72;3.70;;;20.20;70.20;;;;;;4972494;28;20141;-25
2023/10/11 13:03:24;;;;;;;6.97;3.85;;;20.30;77.20;;;;;;4972448;28;20458;-27
2023/10/11 13:05:52;;;;;;;5.38;3.30;;;20.00;79.30;;;;;;4972141;28;20118;-27
2023/10/11 13:08:24;;;;;;;4.65;3.28;;;20.60;87.00;;;;;;4972349;28;20097;-27
2023/10/11 13:10:51;;;;;;;6.70;3.15;;;21.00;83.20;;;;;;4973975;28;20053;-27
2023/10/11 13:13:18;;;;;;;4.60;2.78;;;21.00;80.10;;;;;;4978920;28;20081;-27
2023/10/11 13:15:55;;;;;;;4.90;3.15;;;20.20;87.60;;;;;;4975490;28;20082;-27
2023/10/11 13:18:24;;;;;;;7.25;3.30;;;20.20;70.30;;;;;;4975959;28;20559;-25
2023/10/11 13:20:51;;;;;;;5.85;2.88;;;20.20;86.90;;;;;;4975367;28;20049;-27
2023/10/11 13:23:18;;;;;;;6.38;3.17;;;19.30;72.40;;;;;;4975482;28;20086;-27
2023/10/11 13:25:45;;;;;;;5.15;3.17;;;20.10;87.40;;;;;;4975552;28;20098;-27
2023/10/11 13:28:18;;;;;;;4.10;3.10;;;20.20;70.30;;;;;;4975656;28;20073;-24
2023/10/11 13:30:47;;;;;;;5.45;3.60;;;21.20;87.20;;;;;;4975415;28;20051;-25
2023/10/11 13:33:15;;;;;;;5.30;3.10;;;20.50;87.50;;;;;;4975341;28;20082;-25
2023/10/11 13:35:43;;;;;;;4.07;2.80;;;20.20;70.30;;;;;;4975478;28;20059;-25
2023/10/11 13:38:17;;;;;;;5.80;3.47;;;;;;;;;;4974353;28;20055;-24
2023/10/11 13:40:44;;;;;;;5.38;2.83;;;19.60;87.00;;;;;;4975843;28;20050;-26
2023/10/11 13:43:11;;;;;;;5.18;3.00;;;20.10;73.50;;;;;;4975195;28;20046;-25
2023/10/11 13:45:40;;;;;;;5.30;2.70;;;19.50;87.10;;;;;;4975488;28;20055;-25
2023/10/11 13:48:13;;;;;;;4.28;2.92;;;20.40;71.40;;;;;;4975261;28;20086;-25